Time;durP1;ratioP1;P1;durP2;ratioP2;P2;SDS_P1;SDS_P2;PMS_P1;PMS_P2;Temp;Humidity;BMP_temperature;BMP_pressure;BME280_temperature;BME280_humidity;BME280_pressure;Samples;Min_cycle;Max_cycle;Signal;HPM_P1;HPM_P2
2022/03/20 00:00:04;;;;;;;11.43;6.33;;;3.20;99.90;;;;;;5049185;28;20202;-48
2022/03/20 00:02:38;;;;;;;11.33;6.97;;;3.20;99.90;;;;;;5056684;28;20221;-44
2022/03/20 00:05:06;;;;;;;14.33;7.27;;;3.20;99.90;;;;;;5058485;28;20218;-45
2022/03/20 00:07:34;;;;;;;11.73;6.90;;;3.10;99.90;;;;;;5057749;28;20199;-46
2022/03/20 00:10:05;;;;;;;12.40;7.97;;;3.10;99.90;;;;;;5059552;28;20207;-48
2022/03/20 00:12:35;;;;;;;13.07;7.93;;;3.10;99.90;;;;;;5063974;28;20191;-44
2022/03/20 00:15:05;;;;;;;11.57;7.43;;;3.00;99.90;;;;;;5057395;28;20210;-45
2022/03/20 00:17:32;;;;;;;13.97;8.37;;;3.00;99.90;;;;;;5032400;28;20206;-49
2022/03/20 00:19:59;;;;;;;13.27;7.93;;;3.00;99.90;;;;;;5058072;28;20671;-46
2022/03/20 00:22:27;;;;;;;13.27;7.53;;;3.00;99.90;;;;;;5050906;28;20217;-46
2022/03/20 00:24:54;;;;;;;15.10;9.07;;;3.00;99.90;;;;;;5054181;28;20307;-48
2022/03/20 00:27:21;;;;;;;9.37;7.40;;;3.00;99.90;;;;;;5059904;28;20222;-47
2022/03/20 00:29:49;;;;;;;8.87;7.67;;;2.90;99.90;;;;;;5060809;28;20289;-47
2022/03/20 00:32:19;;;;;;;11.23;7.87;;;2.90;99.90;;;;;;5039974;28;20203;-46
2022/03/20 00:34:46;;;;;;;10.90;8.40;;;2.90;99.90;;;;;;5057811;28;20625;-44
2022/03/20 00:37:13;;;;;;;12.77;7.33;;;2.90;99.90;;;;;;5057868;28;20197;-42
2022/03/20 00:39:40;;;;;;;13.10;9.30;;;2.90;99.90;;;;;;5057311;28;20394;-44
2022/03/20 00:42:08;;;;;;;12.07;8.37;;;2.90;99.90;;;;;;5057445;28;20281;-45
2022/03/20 00:44:34;;;;;;;12.07;8.43;;;2.80;99.90;;;;;;5061652;28;20218;-44
2022/03/20 00:47:01;;;;;;;11.97;8.63;;;2.80;99.90;;;;;;5058362;28;20648;-42
2022/03/20 00:49:31;;;;;;;12.60;8.47;;;2.80;99.90;;;;;;5049233;28;20205;-43
2022/03/20 00:51:59;;;;;;;13.33;9.50;;;2.80;99.90;;;;;;5057132;28;20202;-44
2022/03/20 00:54:26;;;;;;;14.67;8.97;;;2.70;99.90;;;;;;5056831;28;20234;-43
2022/03/20 00:56:53;;;;;;;17.30;9.00;;;2.70;99.90;;;;;;5059892;28;20194;-42
2022/03/20 00:59:20;;;;;;;17.93;9.97;;;2.70;99.90;;;;;;5059792;28;20190;-43
2022/03/20 01:01:47;;;;;;;19.63;9.93;;;2.70;99.90;;;;;;5061727;28;20221;-43
2022/03/20 01:04:14;;;;;;;14.87;9.33;;;2.70;99.90;;;;;;5042758;28;20242;-44
2022/03/20 01:06:42;;;;;;;14.40;9.93;;;2.70;99.90;;;;;;5061075;28;20219;-46
2022/03/20 01:09:08;;;;;;;14.63;10.03;;;2.70;99.90;;;;;;5054794;28;20195;-49
2022/03/20 01:11:35;;;;;;;17.20;10.67;;;2.70;99.90;;;;;;5064720;28;20191;-48
2022/03/20 01:14:02;;;;;;;15.60;11.20;;;2.70;99.90;;;;;;5062298;28;20244;-50
2022/03/20 01:16:29;;;;;;;17.53;10.60;;;2.70;99.90;;;;;;5060956;28;20295;-46
2022/03/20 01:18:56;;;;;;;20.13;11.60;;;2.60;99.90;;;;;;5052551;28;20229;-47
2022/03/20 01:21:23;;;;;;;18.97;11.27;;;2.60;99.90;;;;;;5058946;28;20187;-45
2022/03/20 01:23:51;;;;;;;16.87;11.13;;;2.60;99.90;;;;;;5060347;28;20226;-48
2022/03/20 01:26:17;;;;;;;17.67;10.80;;;2.60;99.90;;;;;;5057240;28;20370;-46
2022/03/20 01:28:44;;;;;;;15.30;10.10;;;2.60;99.90;;;;;;5065130;28;20206;-44
2022/03/20 01:31:11;;;;;;;14.00;9.80;;;2.60;99.90;;;;;;5061042;28;20201;-46
2022/03/20 01:33:38;;;;;;;13.30;10.50;;;2.60;99.90;;;;;;5064446;28;20211;-44
2022/03/20 01:36:05;;;;;;;18.17;10.67;;;2.60;99.90;;;;;;5047046;28;20218;-47
2022/03/20 01:38:32;;;;;;;18.97;11.00;;;2.60;99.90;;;;;;5064221;28;20285;-49
2022/03/20 01:41:01;;;;;;;16.13;10.70;;;2.60;99.90;;;;;;5056858;28;20199;-49
2022/03/20 01:43:28;;;;;;;20.97;11.30;;;2.60;99.90;;;;;;5063627;28;20219;-45
2022/03/20 01:45:54;;;;;;;14.57;10.07;;;2.60;99.90;;;;;;5061993;28;20214;-46
2022/03/20 01:48:21;;;;;;;20.80;10.70;;;2.60;99.90;;;;;;5062318;28;20710;-43
2022/03/20 01:50:48;;;;;;;19.50;10.73;;;2.60;99.90;;;;;;5063723;28;20225;-43
2022/03/20 01:53:19;;;;;;;15.17;10.83;;;2.60;99.90;;;;;;5051460;28;20200;-45
2022/03/20 01:55:46;;;;;;;14.33;11.03;;;2.50;99.90;;;;;;5054781;28;20207;-46
2022/03/20 01:58:16;;;;;;;16.03;11.07;;;2.60;99.90;;;;;;5060604;28;20891;-49
2022/03/20 02:00:43;;;;;;;16.87;10.43;;;2.50;99.90;;;;;;5058501;28;20579;-44
2022/03/20 02:03:10;;;;;;;16.20;11.23;;;2.50;99.90;;;;;;5060159;28;20276;-45
2022/03/20 02:05:37;;;;;;;17.10;11.23;;;2.50;99.90;;;;;;5057564;28;20225;-47
2022/03/20 02:08:05;;;;;;;15.17;9.53;;;2.50;99.90;;;;;;5042623;28;20686;-46
2022/03/20 02:10:36;;;;;;;16.53;10.97;;;2.50;99.90;;;;;;5053732;28;20243;-46
2022/03/20 02:13:03;;;;;;;14.87;11.37;;;2.50;99.90;;;;;;5054474;28;20199;-43
2022/03/20 02:15:31;;;;;;;18.90;11.30;;;2.50;99.90;;;;;;5064188;28;20677;-43
2022/03/20 02:17:58;;;;;;;17.30;11.33;;;2.50;99.90;;;;;;5060163;28;20202;-44
2022/03/20 02:20:25;;;;;;;16.63;11.23;;;2.50;99.90;;;;;;5062291;28;20580;-46
2022/03/20 02:22:54;;;;;;;22.03;11.73;;;2.50;99.90;;;;;;5049256;28;20851;-46
2022/03/20 02:25:21;;;;;;;16.57;10.93;;;2.50;99.90;;;;;;5057580;28;20223;-46
2022/03/20 02:27:48;;;;;;;16.67;10.20;;;2.40;99.90;;;;;;5062740;28;20217;-46
2022/03/20 02:30:18;;;;;;;18.70;12.37;;;2.40;99.90;;;;;;5059239;28;20891;-46
2022/03/20 02:32:48;;;;;;;20.63;11.00;;;2.50;99.90;;;;;;5063516;28;20200;-45
2022/03/20 02:35:16;;;;;;;19.40;11.90;;;2.50;99.90;;;;;;5060200;28;20221;-48
2022/03/20 02:38:04;;;;;;;17.13;11.20;;;2.40;99.90;;;;;;5048339;28;20222;-43
2022/03/20 02:40:31;;;;;;;18.27;11.50;;;2.40;99.90;;;;;;5060250;28;20667;-46
2022/03/20 02:42:58;;;;;;;15.80;11.87;;;2.40;99.90;;;;;;5055707;28;20199;-49
2022/03/20 02:45:29;;;;;;;16.63;11.07;;;2.40;99.90;;;;;;5062172;28;20276;-44
2022/03/20 02:47:58;;;;;;;17.77;11.57;;;2.40;99.90;;;;;;5060777;28;20299;-46
2022/03/20 02:50:28;;;;;;;16.23;11.10;;;2.40;99.90;;;;;;5061941;28;20973;-44
2022/03/20 02:52:56;;;;;;;17.30;12.03;;;2.40;99.90;;;;;;5054057;28;20225;-44
2022/03/20 02:55:26;;;;;;;17.70;11.97;;;2.40;99.90;;;;;;5056199;28;20221;-48
2022/03/20 02:57:54;;;;;;;17.53;11.93;;;2.30;99.90;;;;;;5055817;28;20552;-43
2022/03/20 03:00:25;;;;;;;17.50;11.50;;;2.30;99.90;;;;;;5061192;28;20905;-45
2022/03/20 03:02:54;;;;;;;16.83;11.77;;;2.30;99.90;;;;;;5061725;28;20210;-45
2022/03/20 03:05:22;;;;;;;18.00;11.67;;;2.30;99.90;;;;;;5060627;28;20218;-46
2022/03/20 03:13:23;;;;;;;16.73;11.67;;;2.30;99.90;;;;;;5058069;28;20195;-45
2022/03/20 03:15:52;;;;;;;16.93;11.17;;;2.30;99.90;;;;;;5061545;28;20194;-50
2022/03/20 03:18:18;;;;;;;18.77;12.43;;;2.30;99.90;;;;;;5060103;28;20417;-47
2022/03/20 03:20:48;;;;;;;18.93;12.60;;;2.30;99.90;;;;;;5062008;28;20202;-49
2022/03/20 03:23:15;;;;;;;19.13;11.90;;;2.30;99.90;;;;;;5059740;28;20202;-44
2022/03/20 03:25:45;;;;;;;16.60;11.63;;;2.30;99.90;;;;;;5049441;28;20687;-47
2022/03/20 03:28:12;;;;;;;17.23;11.03;;;2.30;99.90;;;;;;5053377;28;20897;-45
2022/03/20 03:30:42;;;;;;;19.13;12.33;;;2.30;99.90;;;;;;5062289;28;20198;-43
2022/03/20 03:33:09;;;;;;;15.30;11.50;;;2.30;99.90;;;;;;5058339;28;20198;-44
2022/03/20 03:35:47;;;;;;;18.07;12.57;;;2.20;99.90;;;;;;5062338;28;20203;-47
2022/03/20 03:38:15;;;;;;;17.73;13.07;;;2.20;99.90;;;;;;5058891;28;20194;-45
2022/03/20 03:40:45;;;;;;;20.57;12.93;;;2.20;99.90;;;;;;5061962;28;20201;-44
2022/03/20 03:43:14;;;;;;;21.37;12.50;;;2.20;99.90;;;;;;5038668;28;20206;-45
2022/03/20 03:45:43;;;;;;;20.90;12.70;;;2.20;99.90;;;;;;5062510;28;20281;-47
2022/03/20 03:48:10;;;;;;;18.03;11.97;;;2.10;99.90;;;;;;5057885;28;20357;-46
2022/03/20 03:50:39;;;;;;;17.43;11.90;;;2.10;99.90;;;;;;5061198;28;20190;-49
2022/03/20 03:53:06;;;;;;;20.00;11.80;;;2.10;99.90;;;;;;5058038;28;20189;-44
2022/03/20 03:55:34;;;;;;;19.60;12.57;;;2.10;99.90;;;;;;5062620;28;20208;-43
2022/03/20 03:58:02;;;;;;;20.57;12.50;;;2.10;99.90;;;;;;5051574;28;20202;-46
2022/03/20 04:00:32;;;;;;;20.87;12.93;;;2.00;99.90;;;;;;5061744;28;20216;-44
2022/03/20 04:02:59;;;;;;;19.30;12.40;;;2.00;99.90;;;;;;5059819;28;20205;-42
2022/03/20 04:05:27;;;;;;;19.77;13.47;;;2.00;99.90;;;;;;5060743;28;20321;-46
2022/03/20 04:07:55;;;;;;;21.07;11.83;;;2.00;99.90;;;;;;5059874;28;20205;-43
2022/03/20 04:10:23;;;;;;;18.17;12.47;;;2.00;99.90;;;;;;5060009;28;20885;-43
2022/03/20 04:12:52;;;;;;;19.57;12.60;;;1.90;99.90;;;;;;5055593;28;20226;-43
2022/03/20 04:15:24;;;;;;;16.67;11.83;;;1.90;99.90;;;;;;5050399;28;20316;-45
2022/03/20 04:17:52;;;;;;;18.77;13.10;;;1.90;99.90;;;;;;5060397;28;20229;-45
2022/03/20 04:20:18;;;;;;;17.07;12.07;;;1.90;99.90;;;;;;5059144;28;20201;-44
2022/03/20 04:23:42;;;;;;;20.13;12.57;;;1.90;99.90;;;;;;5062027;28;20681;-43
2022/03/20 04:25:34;;;;;;;22.37;13.00;;;1.90;99.90;;;;;;5061884;28;20744;-44
2022/03/20 04:28:01;;;;;;;22.50;12.67;;;1.90;99.90;;;;;;5058710;28;20213;-44
2022/03/20 04:30:33;;;;;;;20.03;13.23;;;1.90;99.90;;;;;;5042716;28;20213;-45
2022/03/20 04:33:01;;;;;;;21.30;14.33;;;1.90;99.90;;;;;;5056528;28;20682;-47
2022/03/20 04:35:28;;;;;;;20.23;13.47;;;1.90;99.90;;;;;;5056243;28;20260;-47
2022/03/20 04:37:56;;;;;;;19.20;12.20;;;1.80;99.90;;;;;;5052970;28;20216;-48
2022/03/20 04:40:23;;;;;;;22.47;13.53;;;1.80;99.90;;;;;;5060264;28;20211;-45
2022/03/20 04:42:50;;;;;;;21.13;13.17;;;1.80;99.90;;;;;;5055133;28;20205;-48
2022/03/20 04:45:18;;;;;;;20.60;13.73;;;1.80;99.90;;;;;;5046300;28;20226;-48
2022/03/20 04:58:47;;;;;;;20.23;12.80;;;1.70;99.90;;;;;;5062222;28;20275;-47
2022/03/20 05:01:14;;;;;;;16.17;12.23;;;1.70;99.90;;;;;;5048506;28;20893;-47
2022/03/20 05:03:42;;;;;;;16.10;12.10;;;1.70;99.90;;;;;;5064978;28;20729;-45
2022/03/20 05:06:10;;;;;;;21.07;13.63;;;1.70;99.90;;;;;;5060475;28;20248;-47
2022/03/20 05:08:37;;;;;;;18.90;12.83;;;1.70;99.90;;;;;;5065370;28;20201;-44
2022/03/20 05:13:49;;;;;;;17.00;12.53;;;1.70;99.90;;;;;;5063659;28;20267;-44
2022/03/20 05:16:18;;;;;;;21.17;13.13;;;1.70;99.90;;;;;;5048699;28;20209;-44
2022/03/20 05:18:46;;;;;;;18.07;13.30;;;1.70;99.90;;;;;;5064935;28;20578;-42
2022/03/20 05:21:13;;;;;;;22.17;13.23;;;1.60;99.90;;;;;;5060888;28;20206;-46
2022/03/20 05:23:40;;;;;;;17.50;12.10;;;1.70;99.90;;;;;;5064675;28;20215;-45
2022/03/20 05:26:07;;;;;;;18.70;13.40;;;1.70;99.90;;;;;;5060509;28;20221;-47
2022/03/20 05:28:34;;;;;;;20.17;13.23;;;1.60;99.90;;;;;;5062711;28;20221;-44
2022/03/20 05:31:03;;;;;;;22.70;13.37;;;1.60;99.90;;;;;;5040271;28;20217;-49
2022/03/20 05:33:31;;;;;;;20.93;12.50;;;1.70;99.90;;;;;;5059918;28;20221;-46
2022/03/20 05:36:00;;;;;;;20.30;12.90;;;1.60;99.90;;;;;;5053383;28;20220;-45
2022/03/20 05:38:27;;;;;;;18.63;13.10;;;1.60;99.90;;;;;;5061733;28;20197;-46
2022/03/20 05:41:43;;;;;;;22.43;14.03;;;1.60;99.90;;;;;;5059685;28;20209;-46
2022/03/20 05:43:44;;;;;;;21.83;13.40;;;1.60;99.90;;;;;;5061923;28;20239;-50
2022/03/20 05:46:11;;;;;;;20.73;13.10;;;1.60;99.90;;;;;;5036337;28;20291;-45
2022/03/20 05:48:38;;;;;;;18.03;12.67;;;1.60;99.90;;;;;;5061317;28;20233;-47
2022/03/20 05:51:07;;;;;;;21.70;12.87;;;1.60;99.90;;;;;;5053921;28;20244;-46
2022/03/20 05:53:33;;;;;;;18.97;13.63;;;1.60;99.90;;;;;;5061345;28;20316;-48
2022/03/20 05:58:45;;;;;;;19.93;13.53;;;1.70;99.90;;;;;;5061741;28;20288;-50
2022/03/20 06:01:11;;;;;;;20.40;13.17;;;1.70;99.90;;;;;;5049989;28;20209;-45
2022/03/20 06:03:38;;;;;;;18.20;13.13;;;1.70;99.90;;;;;;5047547;28;20221;-44
2022/03/20 06:06:07;;;;;;;18.17;12.80;;;1.70;99.90;;;;;;5055941;28;20226;-49
2022/03/20 06:08:35;;;;;;;18.70;12.83;;;1.80;99.90;;;;;;5053230;28;20234;-45
2022/03/20 06:11:01;;;;;;;18.90;13.53;;;1.80;99.90;;;;;;5059902;28;20205;-42
2022/03/20 06:13:28;;;;;;;21.67;14.13;;;1.80;99.90;;;;;;5055261;28;20221;-46
2022/03/20 06:15:57;;;;;;;20.60;13.30;;;1.90;99.90;;;;;;5057302;28;20195;-46
2022/03/20 06:18:26;;;;;;;20.57;13.33;;;1.90;99.90;;;;;;5045048;28;20213;-44
2022/03/20 06:20:53;;;;;;;18.53;13.13;;;1.90;99.90;;;;;;5066660;28;20566;-42
2022/03/20 06:23:22;;;;;;;18.23;11.87;;;1.90;99.90;;;;;;5054920;28;20194;-45
2022/03/20 06:25:51;;;;;;;19.30;13.77;;;1.90;99.90;;;;;;5062306;28;20671;-41
2022/03/20 06:28:19;;;;;;;21.70;13.50;;;2.00;99.90;;;;;;5054222;28;20249;-42
2022/03/20 06:30:46;;;;;;;17.73;13.07;;;2.10;99.90;;;;;;5049741;28;20272;-39
2022/03/20 06:33:13;;;;;;;18.77;13.03;;;2.10;99.90;;;;;;5035688;28;20224;-47
2022/03/20 06:35:40;;;;;;;21.50;13.80;;;2.20;99.90;;;;;;5050953;28;20202;-48
2022/03/20 06:38:07;;;;;;;19.33;13.00;;;2.30;99.90;;;;;;5054267;28;20853;-44
2022/03/20 06:40:35;;;;;;;18.60;14.17;;;2.30;99.90;;;;;;5050714;28;20233;-42
2022/03/20 06:43:02;;;;;;;18.33;12.70;;;2.30;99.90;;;;;;5057445;28;20213;-44
2022/03/20 06:45:29;;;;;;;19.73;13.80;;;2.30;99.90;;;;;;5059496;28;20217;-43
2022/03/20 06:47:56;;;;;;;19.47;13.53;;;2.40;99.90;;;;;;5052691;28;20225;-48
2022/03/20 06:50:23;;;;;;;18.27;13.17;;;2.50;99.90;;;;;;5044033;28;20230;-49
2022/03/20 06:52:49;;;;;;;20.33;13.43;;;2.50;99.90;;;;;;5061645;28;20202;-42
2022/03/20 06:55:18;;;;;;;20.77;13.30;;;2.60;99.90;;;;;;5061095;28;20726;-43
2022/03/20 06:57:47;;;;;;;16.30;12.83;;;2.70;99.90;;;;;;5061647;28;20198;-41
2022/03/20 07:00:16;;;;;;;18.60;12.47;;;2.70;99.90;;;;;;5061238;28;20209;-40
2022/03/20 07:02:55;;;;;;;16.37;11.83;;;2.80;99.90;;;;;;5050476;28;20844;-40
2022/03/20 07:05:22;;;;;;;20.67;13.57;;;2.90;99.90;;;;;;5039833;28;20671;-42
2022/03/20 07:07:51;;;;;;;23.90;12.97;;;3.00;99.90;;;;;;5043077;28;20226;-43
2022/03/20 07:10:21;;;;;;;17.90;11.93;;;3.10;99.90;;;;;;5059658;28;20221;-43
2022/03/20 07:12:50;;;;;;;17.50;12.70;;;3.20;99.90;;;;;;5053817;28;20648;-47
2022/03/20 07:15:17;;;;;;;21.07;12.80;;;3.30;99.90;;;;;;5051666;28;20254;-42
2022/03/20 07:17:47;;;;;;;20.20;13.43;;;3.40;99.90;;;;;;5053916;28;20206;-43
2022/03/20 07:20:16;;;;;;;19.10;13.80;;;3.50;99.90;;;;;;5041317;28;20206;-43
2022/03/20 07:22:43;;;;;;;17.60;11.77;;;3.60;99.90;;;;;;5055598;28;20221;-45
2022/03/20 07:30:40;;;;;;;18.10;12.30;;;3.90;99.90;;;;;;5052880;28;20281;-42
2022/03/20 07:33:07;;;;;;;18.30;12.30;;;4.10;99.90;;;;;;5057024;28;20911;-42
2022/03/20 07:35:33;;;;;;;15.50;10.87;;;4.20;99.90;;;;;;5060025;28;20207;-43
2022/03/20 07:38:01;;;;;;;19.73;12.50;;;4.30;99.90;;;;;;5041131;28;20198;-42
2022/03/20 07:40:28;;;;;;;18.57;12.50;;;4.40;99.90;;;;;;5057246;28;20202;-43
2022/03/20 07:42:56;;;;;;;19.40;12.20;;;4.50;99.90;;;;;;5057715;28;20299;-43
2022/03/20 07:45:22;;;;;;;16.67;11.60;;;4.70;99.90;;;;;;5053851;28;20264;-43
2022/03/20 07:47:49;;;;;;;15.37;10.97;;;4.70;99.90;;;;;;5054671;28;20710;-41
2022/03/20 07:50:16;;;;;;;17.03;11.07;;;4.80;99.90;;;;;;5063971;28;20277;-43
2022/03/20 07:52:45;;;;;;;13.63;10.47;;;4.90;99.90;;;;;;5047261;28;20210;-41
2022/03/20 07:55:12;;;;;;;15.17;11.10;;;5.00;99.90;;;;;;5055204;28;20245;-43
2022/03/20 07:57:41;;;;;;;14.47;10.97;;;5.20;99.90;;;;;;5056520;28;20674;-42
2022/03/20 08:00:11;;;;;;;14.87;10.00;;;5.30;99.90;;;;;;5050624;28;20294;-42
2022/03/20 08:02:38;;;;;;;13.83;10.60;;;5.40;99.90;;;;;;5055921;28;20218;-41
2022/03/20 08:05:06;;;;;;;17.13;11.23;;;5.60;99.90;;;;;;5051426;28;20475;-44
2022/03/20 08:07:36;;;;;;;13.33;10.30;;;5.70;99.90;;;;;;5044874;28;20296;-41
2022/03/20 08:10:06;;;;;;;15.20;11.27;;;5.80;99.90;;;;;;5049717;28;20203;-42
2022/03/20 08:12:32;;;;;;;15.33;10.40;;;5.90;99.90;;;;;;5057333;28;20198;-44
2022/03/20 08:14:59;;;;;;;15.80;10.83;;;6.00;99.90;;;;;;5047020;28;20229;-42
2022/03/20 08:17:28;;;;;;;14.10;9.63;;;6.10;99.90;;;;;;5058930;28;20214;-42
2022/03/20 08:19:55;;;;;;;14.10;9.80;;;6.20;99.90;;;;;;5056245;28;20222;-42
2022/03/20 08:22:22;;;;;;;14.60;10.40;;;6.30;99.90;;;;;;5042775;28;20207;-43
2022/03/20 08:24:48;;;;;;;14.23;9.60;;;6.30;99.90;;;;;;5061786;28;20569;-39
2022/03/20 08:27:16;;;;;;;15.10;10.43;;;6.40;99.90;;;;;;5058235;28;20218;-38
2022/03/20 08:29:43;;;;;;;15.97;8.77;;;6.50;99.90;;;;;;5063649;28;20204;-38
2022/03/20 08:32:10;;;;;;;15.13;9.77;;;6.60;99.90;;;;;;5058193;28;20683;-38
2022/03/20 08:34:38;;;;;;;14.27;9.73;;;6.60;99.90;;;;;;5062763;28;20214;-38
2022/03/20 08:37:06;;;;;;;15.00;9.30;;;6.70;99.90;;;;;;5050041;28;20678;-37
2022/03/20 08:39:33;;;;;;;13.83;10.17;;;6.70;99.90;;;;;;5046624;28;20221;-40
2022/03/20 08:42:00;;;;;;;11.63;9.03;;;6.80;99.90;;;;;;5061951;28;20202;-38
2022/03/20 08:44:28;;;;;;;13.80;9.83;;;6.80;99.90;;;;;;5061167;28;20272;-42
2022/03/20 08:46:54;;;;;;;13.60;10.10;;;6.90;99.90;;;;;;5054233;28;20223;-42
2022/03/20 08:49:21;;;;;;;17.50;9.97;;;7.00;99.90;;;;;;5058574;28;20225;-47
2022/03/20 08:51:49;;;;;;;14.57;9.93;;;7.10;99.70;;;;;;5063572;28;20198;-42
2022/03/20 08:54:16;;;;;;;14.90;10.17;;;7.20;99.30;;;;;;5045928;28;20218;-44
2022/03/20 08:56:43;;;;;;;13.93;10.17;;;7.20;99.00;;;;;;5060333;28;20206;-44
2022/03/20 08:59:10;;;;;;;12.60;10.00;;;7.30;97.80;;;;;;5055121;28;20201;-44
2022/03/20 09:01:37;;;;;;;13.73;10.80;;;7.30;97.50;;;;;;5055970;28;20289;-42
2022/03/20 09:04:04;;;;;;;13.30;9.77;;;7.40;96.30;;;;;;5061661;28;20221;-45
2022/03/20 09:06:31;;;;;;;14.57;10.20;;;7.40;96.80;;;;;;5063781;28;20198;-43
2022/03/20 09:09:00;;;;;;;15.47;10.70;;;7.40;96.80;;;;;;5048702;28;20210;-43
2022/03/20 09:11:27;;;;;;;18.63;10.67;;;7.50;96.40;;;;;;5048794;28;20223;-42
2022/03/20 09:13:53;;;;;;;12.13;9.83;;;7.60;96.30;;;;;;5054746;28;20219;-42
2022/03/20 09:19:07;;;;;;;16.73;10.60;;;7.80;95.40;;;;;;5055634;28;20702;-46
2022/03/20 09:21:35;;;;;;;14.07;10.30;;;7.80;95.30;;;;;;5063314;28;20197;-42
2022/03/20 09:24:06;;;;;;;14.43;10.30;;;7.90;94.60;;;;;;5049177;28;20249;-43
2022/03/20 09:26:34;;;;;;;13.03;10.37;;;8.00;94.10;;;;;;5059798;28;20198;-43
2022/03/20 09:29:02;;;;;;;16.33;10.53;;;8.10;93.70;;;;;;5054629;28;20671;-46
2022/03/20 09:31:31;;;;;;;12.70;10.50;;;8.10;93.50;;;;;;5051576;28;20256;-49
2022/03/20 09:33:58;;;;;;;13.37;10.27;;;8.20;93.40;;;;;;5049444;28;20710;-41
2022/03/20 09:36:25;;;;;;;15.27;10.87;;;8.30;92.50;;;;;;5051293;28;20222;-44
2022/03/20 09:38:56;;;;;;;14.17;10.60;;;8.40;92.30;;;;;;5046834;28;20202;-42
2022/03/20 09:41:29;;;;;;;16.47;10.93;;;8.40;91.70;;;;;;5061302;28;20293;-43
2022/03/20 09:43:56;;;;;;;13.33;10.83;;;8.40;91.60;;;;;;5052030;28;20230;-44
2022/03/20 09:46:23;;;;;;;17.63;10.80;;;8.50;91.40;;;;;;5056718;28;20195;-43
2022/03/20 09:48:51;;;;;;;13.17;10.57;;;8.60;91.10;;;;;;5054363;28;20218;-43
2022/03/20 09:51:18;;;;;;;17.17;11.50;;;8.70;90.70;;;;;;5062083;28;20228;-42
2022/03/20 09:53:45;;;;;;;15.90;10.97;;;8.80;90.60;;;;;;5064580;28;20726;-44
2022/03/20 09:56:12;;;;;;;15.73;11.57;;;8.90;90.60;;;;;;5047299;28;20202;-42
2022/03/20 09:58:41;;;;;;;16.37;11.43;;;9.00;90.40;;;;;;5065183;28;20285;-42
2022/03/20 10:01:09;;;;;;;18.23;13.00;;;9.00;90.10;;;;;;5055524;28;20203;-44
2022/03/20 10:03:36;;;;;;;14.60;11.60;;;9.00;87.90;;;;;;5052764;28;20230;-44
2022/03/20 10:06:16;;;;;;;16.47;12.67;;;9.00;87.90;;;;;;5045583;28;20221;-45
2022/03/20 10:09:03;;;;;;;15.87;12.40;;;9.10;86.80;;;;;;5054861;28;20214;-42
2022/03/20 10:11:29;;;;;;;16.30;12.07;;;9.20;87.60;;;;;;5048895;28;20198;-44
2022/03/20 10:14:13;;;;;;;18.57;12.27;;;9.20;87.00;;;;;;5058418;28;20225;-42
2022/03/20 10:16:41;;;;;;;16.40;11.53;;;9.30;86.40;;;;;;5062324;28;20190;-44
2022/03/20 10:19:31;;;;;;;17.50;12.60;;;9.30;86.40;;;;;;5050068;28;20207;-43
2022/03/20 10:22:02;;;;;;;18.13;13.03;;;9.40;84.20;;;;;;5058025;28;20206;-44
2022/03/20 10:24:31;;;;;;;14.90;11.80;;;9.40;85.00;;;;;;5058904;28;20302;-46
2022/03/20 10:27:07;;;;;;;17.90;12.67;;;9.60;84.60;;;;;;5042539;28;20214;-45
2022/03/20 10:29:36;;;;;;;15.90;12.53;;;9.60;82.70;;;;;;5060929;28;20293;-44
2022/03/20 10:32:09;;;;;;;15.80;12.20;;;9.60;83.70;;;;;;5057839;28;20186;-43
2022/03/20 10:34:48;;;;;;;15.10;12.13;;;9.70;83.50;;;;;;5060885;28;20215;-43
2022/03/20 10:37:15;;;;;;;16.33;12.30;;;9.90;93.00;;;;;;5051644;28;20198;-45
2022/03/20 10:39:42;;;;;;;15.23;12.60;;;9.90;98.40;;;;;;5049698;28;20294;-42
2022/03/20 10:42:12;;;;;;;18.17;13.13;;;10.00;80.40;;;;;;5044418;28;20301;-44
2022/03/20 10:44:41;;;;;;;15.10;11.37;;;9.90;91.80;;;;;;5044888;28;20213;-41
2022/03/20 10:47:12;;;;;;;16.83;12.40;;;10.00;92.10;;;;;;5062631;28;20291;-42
2022/03/20 10:49:40;;;;;;;17.67;12.30;;;10.00;94.70;;;;;;5047586;28;20196;-41
2022/03/20 10:52:09;;;;;;;19.53;12.93;;;10.40;90.20;;;;;;5044881;28;20483;-45
2022/03/20 10:54:40;;;;;;;18.77;12.87;;;10.30;81.20;;;;;;5052075;28;20307;-41
2022/03/20 10:57:08;;;;;;;18.87;12.37;;;10.30;78.60;;;;;;5037279;28;20210;-42
2022/03/20 10:59:35;;;;;;;17.43;12.83;;;10.40;77.90;;;;;;5051677;28;20241;-44
2022/03/20 11:02:05;;;;;;;18.37;12.30;;;10.50;78.10;;;;;;5041847;28;20202;-47
2022/03/20 11:04:33;;;;;;;17.97;12.50;;;10.60;77.00;;;;;;5046210;28;20229;-42
2022/03/20 11:07:06;;;;;;;15.33;11.50;;;10.60;76.00;;;;;;5048095;28;20293;-43
2022/03/20 11:09:33;;;;;;;17.50;12.70;;;10.70;75.30;;;;;;5046937;28;20203;-47
2022/03/20 11:12:04;;;;;;;15.13;11.93;;;10.80;73.10;;;;;;5036666;28;20211;-42
2022/03/20 11:14:34;;;;;;;18.13;11.50;;;10.80;72.70;;;;;;5047169;28;20214;-42
2022/03/20 11:17:05;;;;;;;16.30;11.73;;;10.90;71.80;;;;;;5052467;28;20210;-44
2022/03/20 11:19:34;;;;;;;18.57;13.07;;;10.90;71.60;;;;;;5051816;28;20187;-42
2022/03/20 11:22:02;;;;;;;18.53;12.20;;;11.00;70.90;;;;;;5049356;28;20245;-42
2022/03/20 11:24:30;;;;;;;17.87;12.53;;;11.10;70.20;;;;;;5051540;28;20222;-43
2022/03/20 11:27:01;;;;;;;16.83;12.43;;;11.10;69.90;;;;;;5052717;28;20198;-45
2022/03/20 11:29:31;;;;;;;16.93;12.23;;;11.20;71.00;;;;;;5047491;28;20915;-44
2022/03/20 11:31:59;;;;;;;15.73;12.70;;;11.30;69.30;;;;;;5052475;28;20210;-43
2022/03/20 11:34:29;;;;;;;14.77;12.60;;;11.30;68.90;;;;;;5049498;28;20215;-43
2022/03/20 11:37:07;;;;;;;18.07;12.67;;;11.30;67.60;;;;;;5052220;28;20222;-43
2022/03/20 11:39:35;;;;;;;19.03;12.77;;;11.30;66.60;;;;;;5057812;28;21118;-42
2022/03/20 11:42:22;;;;;;;16.97;12.07;;;11.30;66.00;;;;;;5050071;28;20207;-45
2022/03/20 11:45:09;;;;;;;15.00;12.20;;;11.40;66.30;;;;;;5050264;28;20211;-42
2022/03/20 11:47:36;;;;;;;16.93;12.50;;;11.50;65.20;;;;;;5048834;28;20328;-43
2022/03/20 11:50:17;;;;;;;16.70;11.90;;;11.50;66.30;;;;;;5060571;28;20194;-42
2022/03/20 11:52:49;;;;;;;14.80;12.00;;;11.60;63.50;;;;;;5050413;28;20210;-42
2022/03/20 11:55:32;;;;;;;15.03;12.53;;;11.60;63.90;;;;;;5048468;28;20727;-42
2022/03/20 11:58:00;;;;;;;14.60;12.20;;;11.70;64.40;;;;;;5037867;28;20207;-44
2022/03/20 12:00:29;;;;;;;15.43;11.07;;;11.80;64.70;;;;;;5055901;28;20893;-44
2022/03/20 12:03:17;;;;;;;15.63;12.50;;;11.80;63.70;;;;;;5056912;28;20210;-42
2022/03/20 12:06:27;;;;;;;16.40;11.97;;;11.80;62.50;;;;;;5051428;28;20204;-44
2022/03/20 12:09:18;;;;;;;16.93;11.80;;;11.80;60.70;;;;;;5047702;28;20213;-42
2022/03/20 12:11:59;;;;;;;16.97;12.20;;;11.90;61.40;;;;;;5043701;28;20210;-43
2022/03/20 12:14:31;;;;;;;14.40;11.50;;;11.90;61.30;;;;;;5034894;28;20215;-44
2022/03/20 12:16:59;;;;;;;18.67;12.23;;;11.90;62.10;;;;;;5050506;28;20652;-43
2022/03/20 12:19:42;;;;;;;17.40;11.60;;;12.10;62.00;;;;;;5039050;28;20206;-45
2022/03/20 12:22:15;;;;;;;15.10;11.60;;;12.20;59.40;;;;;;5046489;28;20650;-45
2022/03/20 12:24:54;;;;;;;17.53;12.17;;;12.20;60.60;;;;;;5042402;28;20230;-45
2022/03/20 12:27:40;;;;;;;15.97;12.07;;;12.20;59.70;;;;;;5045346;28;20210;-44
2022/03/20 12:30:31;;;;;;;17.13;11.60;;;12.20;58.40;;;;;;5037002;28;20218;-43
2022/03/20 12:33:00;;;;;;;16.63;11.67;;;12.30;58.50;;;;;;5048258;28;20811;-44
2022/03/20 12:35:28;;;;;;;16.77;11.87;;;12.30;59.00;;;;;;5052247;28;20222;-43
2022/03/20 12:37:58;;;;;;;16.67;11.53;;;12.40;58.20;;;;;;5054702;28;20200;-44
2022/03/20 12:40:26;;;;;;;16.27;11.90;;;12.40;57.50;;;;;;5047330;28;20201;-41
2022/03/20 12:42:58;;;;;;;17.83;11.27;;;12.40;57.10;;;;;;5057366;28;20281;-43
2022/03/20 12:45:26;;;;;;;15.77;12.20;;;12.50;57.50;;;;;;5043157;28;20218;-41
2022/03/20 12:47:59;;;;;;;15.43;11.63;;;12.50;57.40;;;;;;5052588;28;20229;-42
2022/03/20 12:50:28;;;;;;;17.00;11.50;;;12.60;56.80;;;;;;5051632;28;20995;-42
2022/03/20 12:53:05;;;;;;;16.33;12.03;;;12.60;57.20;;;;;;5051806;28;20210;-47
2022/03/20 12:55:32;;;;;;;14.40;11.47;;;12.70;56.60;;;;;;5049738;28;20230;-43
2022/03/20 12:57:59;;;;;;;14.70;10.83;;;12.60;55.80;;;;;;5056147;28;20195;-44
2022/03/20 13:00:28;;;;;;;14.37;10.97;;;12.70;56.30;;;;;;5042223;28;20213;-46
2022/03/20 13:03:07;;;;;;;14.17;10.60;;;12.80;56.10;;;;;;5049908;28;20208;-43
2022/03/20 13:05:35;;;;;;;13.30;10.90;;;12.90;54.90;;;;;;5055228;28;20198;-43
2022/03/20 13:08:04;;;;;;;14.60;11.33;;;12.90;54.20;;;;;;5055659;28;20222;-44
2022/03/20 13:10:40;;;;;;;15.23;10.93;;;12.90;54.40;;;;;;5052206;28;20203;-44
2022/03/20 13:13:08;;;;;;;14.00;10.07;;;13.00;53.10;;;;;;5057550;28;20710;-43
2022/03/20 13:15:37;;;;;;;15.40;11.13;;;13.00;54.10;;;;;;5055633;28;20268;-44